sensor_id;sensor_type;location;lat;lon;timestamp;P1;durP1;ratioP1;P2;durP2;ratioP2
50585;SDS011;36542;51.700;8.846;2023-05-07T00:01:52;18.77;;;16.33;;
50585;SDS011;36542;51.700;8.846;2023-05-07T00:04:18;22.30;;;16.60;;
50585;SDS011;36542;51.700;8.846;2023-05-07T00:06:43;20.80;;;16.47;;
50585;SDS011;36542;51.700;8.846;2023-05-07T00:09:10;20.73;;;17.50;;
50585;SDS011;36542;51.700;8.846;2023-05-07T00:11:35;23.77;;;17.33;;
50585;SDS011;36542;51.700;8.846;2023-05-07T00:14:01;20.47;;;17.53;;
50585;SDS011;36542;51.700;8.846;2023-05-07T00:16:26;24.67;;;18.00;;
50585;SDS011;36542;51.700;8.846;2023-05-07T00:18:52;21.37;;;17.50;;
50585;SDS011;36542;51.700;8.846;2023-05-07T00:21:18;23.63;;;18.43;;
50585;SDS011;36542;51.700;8.846;2023-05-07T00:23:44;22.70;;;18.80;;
50585;SDS011;36542;51.700;8.846;2023-05-07T00:26:09;22.80;;;19.03;;
50585;SDS011;36542;51.700;8.846;2023-05-07T00:28:35;25.30;;;19.63;;
50585;SDS011;36542;51.700;8.846;2023-05-07T00:31:00;23.20;;;20.07;;
50585;SDS011;36542;51.700;8.846;2023-05-07T00:33:25;23.77;;;19.80;;
50585;SDS011;36542;51.700;8.846;2023-05-07T00:35:51;22.23;;;19.27;;
50585;SDS011;36542;51.700;8.846;2023-05-07T00:38:19;25.53;;;19.77;;
50585;SDS011;36542;51.700;8.846;2023-05-07T00:40:44;25.67;;;20.43;;
50585;SDS011;36542;51.700;8.846;2023-05-07T00:43:10;25.27;;;20.63;;
50585;SDS011;36542;51.700;8.846;2023-05-07T00:45:35;26.80;;;20.43;;
50585;SDS011;36542;51.700;8.846;2023-05-07T00:48:01;25.93;;;20.13;;
50585;SDS011;36542;51.700;8.846;2023-05-07T00:50:28;25.30;;;21.03;;
50585;SDS011;36542;51.700;8.846;2023-05-07T00:52:54;27.23;;;21.33;;
50585;SDS011;36542;51.700;8.846;2023-05-07T00:55:21;29.10;;;21.97;;
50585;SDS011;36542;51.700;8.846;2023-05-07T00:57:47;28.77;;;22.23;;
50585;SDS011;36542;51.700;8.846;2023-05-07T01:00:13;27.67;;;22.97;;
50585;SDS011;36542;51.700;8.846;2023-05-07T01:02:39;25.83;;;22.47;;
50585;SDS011;36542;51.700;8.846;2023-05-07T01:05:05;28.93;;;23.07;;
50585;SDS011;36542;51.700;8.846;2023-05-07T01:07:34;27.83;;;22.60;;
50585;SDS011;36542;51.700;8.846;2023-05-07T01:10:00;30.03;;;23.33;;
50585;SDS011;36542;51.700;8.846;2023-05-07T01:12:28;28.33;;;24.17;;
50585;SDS011;36542;51.700;8.846;2023-05-07T01:14:55;32.00;;;22.97;;
50585;SDS011;36542;51.700;8.846;2023-05-07T01:17:20;27.50;;;23.00;;
50585;SDS011;36542;51.700;8.846;2023-05-07T01:19:46;33.10;;;24.70;;
50585;SDS011;36542;51.700;8.846;2023-05-07T01:22:12;29.93;;;24.63;;
50585;SDS011;36542;51.700;8.846;2023-05-07T01:24:41;31.87;;;23.40;;
50585;SDS011;36542;51.700;8.846;2023-05-07T01:27:07;30.87;;;23.97;;
50585;SDS011;36542;51.700;8.846;2023-05-07T01:29:33;30.63;;;22.47;;
50585;SDS011;36542;51.700;8.846;2023-05-07T01:32:00;31.53;;;23.97;;
50585;SDS011;36542;51.700;8.846;2023-05-07T01:34:27;31.40;;;24.63;;
50585;SDS011;36542;51.700;8.846;2023-05-07T01:36:56;31.27;;;24.57;;
50585;SDS011;36542;51.700;8.846;2023-05-07T01:39:26;34.47;;;23.97;;
50585;SDS011;36542;51.700;8.846;2023-05-07T01:41:53;28.23;;;23.27;;
50585;SDS011;36542;51.700;8.846;2023-05-07T01:44:21;34.40;;;25.57;;
50585;SDS011;36542;51.700;8.846;2023-05-07T01:46:47;32.67;;;24.67;;
50585;SDS011;36542;51.700;8.846;2023-05-07T01:49:13;31.57;;;23.73;;
50585;SDS011;36542;51.700;8.846;2023-05-07T01:51:39;31.33;;;24.03;;
50585;SDS011;36542;51.700;8.846;2023-05-07T01:54:05;29.00;;;22.33;;
50585;SDS011;36542;51.700;8.846;2023-05-07T01:56:31;34.40;;;25.83;;
50585;SDS011;36542;51.700;8.846;2023-05-07T01:58:57;32.40;;;24.03;;
50585;SDS011;36542;51.700;8.846;2023-05-07T02:01:22;33.83;;;24.50;;
50585;SDS011;36542;51.700;8.846;2023-05-07T02:03:48;29.83;;;24.17;;
50585;SDS011;36542;51.700;8.846;2023-05-07T02:06:13;31.20;;;24.13;;
50585;SDS011;36542;51.700;8.846;2023-05-07T02:08:39;31.50;;;23.13;;
50585;SDS011;36542;51.700;8.846;2023-05-07T02:11:04;32.87;;;23.37;;
50585;SDS011;36542;51.700;8.846;2023-05-07T02:13:31;30.13;;;23.10;;
50585;SDS011;36542;51.700;8.846;2023-05-07T02:15:57;33.03;;;23.70;;
50585;SDS011;36542;51.700;8.846;2023-05-07T02:18:23;34.23;;;24.30;;
50585;SDS011;36542;51.700;8.846;2023-05-07T02:20:48;35.73;;;25.30;;
50585;SDS011;36542;51.700;8.846;2023-05-07T02:23:14;37.33;;;26.30;;
50585;SDS011;36542;51.700;8.846;2023-05-07T02:25:39;34.13;;;24.43;;
50585;SDS011;36542;51.700;8.846;2023-05-07T02:28:05;34.87;;;25.50;;
50585;SDS011;36542;51.700;8.846;2023-05-07T02:30:31;36.40;;;26.50;;
50585;SDS011;36542;51.700;8.846;2023-05-07T02:32:57;34.47;;;25.40;;
50585;SDS011;36542;51.700;8.846;2023-05-07T02:35:23;36.57;;;26.77;;
50585;SDS011;36542;51.700;8.846;2023-05-07T02:37:50;36.90;;;27.33;;
50585;SDS011;36542;51.700;8.846;2023-05-07T02:40:15;38.03;;;26.73;;
50585;SDS011;36542;51.700;8.846;2023-05-07T02:42:41;34.73;;;26.20;;
50585;SDS011;36542;51.700;8.846;2023-05-07T02:45:06;35.70;;;26.23;;
50585;SDS011;36542;51.700;8.846;2023-05-07T02:47:32;42.47;;;27.90;;
50585;SDS011;36542;51.700;8.846;2023-05-07T02:49:58;33.70;;;26.00;;
50585;SDS011;36542;51.700;8.846;2023-05-07T02:52:23;36.20;;;25.53;;
50585;SDS011;36542;51.700;8.846;2023-05-07T02:54:49;39.70;;;29.20;;
50585;SDS011;36542;51.700;8.846;2023-05-07T02:57:14;34.30;;;25.40;;
50585;SDS011;36542;51.700;8.846;2023-05-07T02:59:40;41.30;;;28.93;;
50585;SDS011;36542;51.700;8.846;2023-05-07T03:02:06;36.70;;;25.90;;
50585;SDS011;36542;51.700;8.846;2023-05-07T03:04:31;35.93;;;25.03;;
50585;SDS011;36542;51.700;8.846;2023-05-07T03:06:57;35.93;;;25.90;;
50585;SDS011;36542;51.700;8.846;2023-05-07T03:09:22;35.13;;;26.80;;
50585;SDS011;36542;51.700;8.846;2023-05-07T03:11:48;37.80;;;26.80;;
50585;SDS011;36542;51.700;8.846;2023-05-07T03:14:13;40.97;;;27.67;;
50585;SDS011;36542;51.700;8.846;2023-05-07T03:16:39;40.87;;;28.30;;
50585;SDS011;36542;51.700;8.846;2023-05-07T03:19:05;37.10;;;27.87;;
50585;SDS011;36542;51.700;8.846;2023-05-07T03:21:30;38.87;;;27.70;;
50585;SDS011;36542;51.700;8.846;2023-05-07T03:23:58;41.50;;;28.93;;
50585;SDS011;36542;51.700;8.846;2023-05-07T03:26:24;42.83;;;29.40;;
50585;SDS011;36542;51.700;8.846;2023-05-07T03:28:50;42.63;;;29.07;;
50585;SDS011;36542;51.700;8.846;2023-05-07T03:31:15;41.73;;;28.40;;
50585;SDS011;36542;51.700;8.846;2023-05-07T03:33:51;44.77;;;30.23;;
50585;SDS011;36542;51.700;8.846;2023-05-07T03:36:18;43.57;;;28.87;;
50585;SDS011;36542;51.700;8.846;2023-05-07T03:38:43;44.83;;;28.37;;
50585;SDS011;36542;51.700;8.846;2023-05-07T03:41:09;45.77;;;31.30;;
50585;SDS011;36542;51.700;8.846;2023-05-07T03:43:34;47.13;;;31.33;;
50585;SDS011;36542;51.700;8.846;2023-05-07T03:46:00;50.90;;;32.40;;
50585;SDS011;36542;51.700;8.846;2023-05-07T03:48:25;45.73;;;30.67;;
50585;SDS011;36542;51.700;8.846;2023-05-07T03:50:51;46.43;;;30.97;;
50585;SDS011;36542;51.700;8.846;2023-05-07T03:53:16;48.73;;;31.80;;
50585;SDS011;36542;51.700;8.846;2023-05-07T03:55:42;45.83;;;30.30;;
50585;SDS011;36542;51.700;8.846;2023-05-07T03:58:07;49.27;;;31.83;;
50585;SDS011;36542;51.700;8.846;2023-05-07T04:00:33;45.90;;;31.80;;
50585;SDS011;36542;51.700;8.846;2023-05-07T04:03:03;51.50;;;30.93;;
50585;SDS011;36542;51.700;8.846;2023-05-07T04:05:29;50.77;;;31.70;;
50585;SDS011;36542;51.700;8.846;2023-05-07T04:07:55;49.97;;;31.93;;
50585;SDS011;36542;51.700;8.846;2023-05-07T04:10:21;44.77;;;32.17;;
50585;SDS011;36542;51.700;8.846;2023-05-07T04:12:46;48.63;;;32.63;;
50585;SDS011;36542;51.700;8.846;2023-05-07T04:15:12;46.67;;;30.73;;
50585;SDS011;36542;51.700;8.846;2023-05-07T04:17:37;48.93;;;31.43;;
50585;SDS011;36542;51.700;8.846;2023-05-07T04:20:03;49.60;;;30.37;;
50585;SDS011;36542;51.700;8.846;2023-05-07T04:22:29;47.67;;;31.40;;
50585;SDS011;36542;51.700;8.846;2023-05-07T04:24:55;48.47;;;31.03;;
50585;SDS011;36542;51.700;8.846;2023-05-07T04:27:21;47.97;;;29.70;;
50585;SDS011;36542;51.700;8.846;2023-05-07T04:29:46;45.73;;;30.03;;
50585;SDS011;36542;51.700;8.846;2023-05-07T04:32:12;42.30;;;29.43;;
50585;SDS011;36542;51.700;8.846;2023-05-07T04:34:38;42.57;;;27.27;;
50585;SDS011;36542;51.700;8.846;2023-05-07T04:37:03;44.27;;;31.10;;
50585;SDS011;36542;51.700;8.846;2023-05-07T04:39:29;43.87;;;30.47;;
50585;SDS011;36542;51.700;8.846;2023-05-07T04:41:54;50.83;;;31.23;;
50585;SDS011;36542;51.700;8.846;2023-05-07T04:44:20;44.90;;;30.27;;
50585;SDS011;36542;51.700;8.846;2023-05-07T04:46:46;42.97;;;30.13;;
50585;SDS011;36542;51.700;8.846;2023-05-07T04:49:11;44.13;;;29.83;;
50585;SDS011;36542;51.700;8.846;2023-05-07T04:51:36;42.10;;;30.60;;
50585;SDS011;36542;51.700;8.846;2023-05-07T04:54:03;49.83;;;30.40;;
50585;SDS011;36542;51.700;8.846;2023-05-07T04:56:28;46.40;;;30.83;;
50585;SDS011;36542;51.700;8.846;2023-05-07T04:58:57;41.33;;;27.83;;
50585;SDS011;36542;51.700;8.846;2023-05-07T05:01:22;42.17;;;28.47;;
50585;SDS011;36542;51.700;8.846;2023-05-07T05:03:48;43.67;;;27.90;;
50585;SDS011;36542;51.700;8.846;2023-05-07T05:06:13;44.50;;;27.77;;
50585;SDS011;36542;51.700;8.846;2023-05-07T05:08:39;40.13;;;28.23;;
50585;SDS011;36542;51.700;8.846;2023-05-07T05:11:04;47.17;;;29.50;;
50585;SDS011;36542;51.700;8.846;2023-05-07T05:13:30;41.93;;;29.93;;
50585;SDS011;36542;51.700;8.846;2023-05-07T05:15:55;40.10;;;26.17;;
50585;SDS011;36542;51.700;8.846;2023-05-07T05:18:21;40.80;;;28.00;;
50585;SDS011;36542;51.700;8.846;2023-05-07T05:20:46;47.97;;;30.10;;
50585;SDS011;36542;51.700;8.846;2023-05-07T05:23:12;39.73;;;26.47;;
50585;SDS011;36542;51.700;8.846;2023-05-07T05:25:37;37.30;;;25.97;;
50585;SDS011;36542;51.700;8.846;2023-05-07T05:28:04;37.87;;;25.20;;
50585;SDS011;36542;51.700;8.846;2023-05-07T05:30:29;37.37;;;25.53;;
50585;SDS011;36542;51.700;8.846;2023-05-07T05:32:55;35.07;;;24.30;;
50585;SDS011;36542;51.700;8.846;2023-05-07T05:35:20;37.10;;;25.90;;
50585;SDS011;36542;51.700;8.846;2023-05-07T05:37:46;39.13;;;24.80;;
50585;SDS011;36542;51.700;8.846;2023-05-07T05:40:12;39.23;;;25.70;;
50585;SDS011;36542;51.700;8.846;2023-05-07T05:42:38;37.83;;;26.07;;
50585;SDS011;36542;51.700;8.846;2023-05-07T05:45:03;34.73;;;24.50;;
50585;SDS011;36542;51.700;8.846;2023-05-07T05:47:29;34.47;;;23.47;;
50585;SDS011;36542;51.700;8.846;2023-05-07T05:49:55;36.67;;;24.60;;
50585;SDS011;36542;51.700;8.846;2023-05-07T05:52:20;32.90;;;23.93;;
50585;SDS011;36542;51.700;8.846;2023-05-07T05:54:48;42.10;;;25.20;;
50585;SDS011;36542;51.700;8.846;2023-05-07T05:57:14;31.80;;;21.93;;
50585;SDS011;36542;51.700;8.846;2023-05-07T05:59:39;34.37;;;23.50;;
50585;SDS011;36542;51.700;8.846;2023-05-07T06:02:05;32.23;;;22.43;;
50585;SDS011;36542;51.700;8.846;2023-05-07T06:04:31;32.00;;;22.60;;
50585;SDS011;36542;51.700;8.846;2023-05-07T06:06:57;29.70;;;20.47;;
50585;SDS011;36542;51.700;8.846;2023-05-07T06:09:22;32.57;;;23.70;;
50585;SDS011;36542;51.700;8.846;2023-05-07T06:11:48;33.10;;;22.47;;
50585;SDS011;36542;51.700;8.846;2023-05-07T06:14:13;32.10;;;22.70;;
50585;SDS011;36542;51.700;8.846;2023-05-07T06:16:39;31.30;;;21.90;;
50585;SDS011;36542;51.700;8.846;2023-05-07T06:19:05;31.00;;;21.10;;
50585;SDS011;36542;51.700;8.846;2023-05-07T06:21:30;32.80;;;22.17;;
50585;SDS011;36542;51.700;8.846;2023-05-07T06:23:56;27.13;;;18.30;;
50585;SDS011;36542;51.700;8.846;2023-05-07T06:26:21;28.77;;;19.07;;
50585;SDS011;36542;51.700;8.846;2023-05-07T06:28:47;32.03;;;22.13;;
50585;SDS011;36542;51.700;8.846;2023-05-07T06:31:16;27.23;;;19.63;;
50585;SDS011;36542;51.700;8.846;2023-05-07T06:33:45;27.87;;;19.63;;
50585;SDS011;36542;51.700;8.846;2023-05-07T06:36:11;29.33;;;20.07;;
50585;SDS011;36542;51.700;8.846;2023-05-07T06:38:37;29.07;;;19.30;;
50585;SDS011;36542;51.700;8.846;2023-05-07T06:41:02;26.17;;;19.60;;
50585;SDS011;36542;51.700;8.846;2023-05-07T06:43:28;31.53;;;20.93;;
50585;SDS011;36542;51.700;8.846;2023-05-07T06:45:53;24.63;;;17.47;;
50585;SDS011;36542;51.700;8.846;2023-05-07T06:48:19;26.43;;;19.13;;
50585;SDS011;36542;51.700;8.846;2023-05-07T06:50:45;26.77;;;18.70;;
50585;SDS011;36542;51.700;8.846;2023-05-07T06:53:10;27.17;;;19.73;;
50585;SDS011;36542;51.700;8.846;2023-05-07T06:55:36;26.43;;;18.43;;
50585;SDS011;36542;51.700;8.846;2023-05-07T06:58:03;26.50;;;16.30;;
50585;SDS011;36542;51.700;8.846;2023-05-07T07:00:28;26.73;;;18.10;;
50585;SDS011;36542;51.700;8.846;2023-05-07T07:02:54;24.17;;;17.10;;
50585;SDS011;36542;51.700;8.846;2023-05-07T07:05:20;24.27;;;16.93;;
50585;SDS011;36542;51.700;8.846;2023-05-07T07:07:45;25.07;;;17.93;;
50585;SDS011;36542;51.700;8.846;2023-05-07T07:10:17;24.67;;;16.97;;
50585;SDS011;36542;51.700;8.846;2023-05-07T07:12:49;24.60;;;17.80;;
50585;SDS011;36542;51.700;8.846;2023-05-07T07:15:15;22.93;;;15.27;;
50585;SDS011;36542;51.700;8.846;2023-05-07T07:17:41;23.20;;;16.87;;
50585;SDS011;36542;51.700;8.846;2023-05-07T07:20:07;23.90;;;16.40;;
50585;SDS011;36542;51.700;8.846;2023-05-07T07:22:33;21.50;;;14.57;;
50585;SDS011;36542;51.700;8.846;2023-05-07T07:24:58;23.30;;;16.17;;
50585;SDS011;36542;51.700;8.846;2023-05-07T07:27:24;21.57;;;15.33;;
50585;SDS011;36542;51.700;8.846;2023-05-07T07:29:50;21.43;;;15.10;;
50585;SDS011;36542;51.700;8.846;2023-05-07T07:32:15;24.40;;;16.33;;
50585;SDS011;36542;51.700;8.846;2023-05-07T07:34:41;19.00;;;15.27;;
50585;SDS011;36542;51.700;8.846;2023-05-07T07:37:06;20.67;;;15.37;;
50585;SDS011;36542;51.700;8.846;2023-05-07T07:39:32;19.20;;;14.20;;
50585;SDS011;36542;51.700;8.846;2023-05-07T07:41:58;20.53;;;14.23;;
50585;SDS011;36542;51.700;8.846;2023-05-07T07:44:23;18.47;;;14.87;;
50585;SDS011;36542;51.700;8.846;2023-05-07T07:46:49;17.93;;;14.13;;
50585;SDS011;36542;51.700;8.846;2023-05-07T07:49:15;18.37;;;13.53;;
50585;SDS011;36542;51.700;8.846;2023-05-07T07:51:41;19.40;;;13.80;;
50585;SDS011;36542;51.700;8.846;2023-05-07T07:54:06;19.17;;;14.23;;
50585;SDS011;36542;51.700;8.846;2023-05-07T07:56:32;20.03;;;14.50;;
50585;SDS011;36542;51.700;8.846;2023-05-07T07:58:59;21.07;;;14.50;;
50585;SDS011;36542;51.700;8.846;2023-05-07T08:01:24;17.47;;;13.10;;
50585;SDS011;36542;51.700;8.846;2023-05-07T08:03:50;18.53;;;14.33;;
50585;SDS011;36542;51.700;8.846;2023-05-07T08:06:16;17.00;;;14.23;;
50585;SDS011;36542;51.700;8.846;2023-05-07T08:08:42;19.07;;;14.03;;
50585;SDS011;36542;51.700;8.846;2023-05-07T08:11:07;19.73;;;13.93;;
50585;SDS011;36542;51.700;8.846;2023-05-07T08:13:33;17.37;;;13.90;;
50585;SDS011;36542;51.700;8.846;2023-05-07T08:15:58;18.13;;;14.27;;
50585;SDS011;36542;51.700;8.846;2023-05-07T08:18:24;18.07;;;13.87;;
50585;SDS011;36542;51.700;8.846;2023-05-07T08:20:50;17.77;;;14.20;;
50585;SDS011;36542;51.700;8.846;2023-05-07T08:23:16;20.17;;;14.07;;
50585;SDS011;36542;51.700;8.846;2023-05-07T08:25:41;17.47;;;13.10;;
50585;SDS011;36542;51.700;8.846;2023-05-07T08:28:09;18.80;;;13.67;;
50585;SDS011;36542;51.700;8.846;2023-05-07T08:30:35;19.00;;;13.80;;
50585;SDS011;36542;51.700;8.846;2023-05-07T08:33:00;18.53;;;13.93;;
50585;SDS011;36542;51.700;8.846;2023-05-07T08:35:26;19.13;;;12.97;;
50585;SDS011;36542;51.700;8.846;2023-05-07T08:37:52;20.80;;;14.83;;
50585;SDS011;36542;51.700;8.846;2023-05-07T08:40:18;19.90;;;13.73;;
50585;SDS011;36542;51.700;8.846;2023-05-07T08:42:44;21.50;;;15.37;;
50585;SDS011;36542;51.700;8.846;2023-05-07T08:45:10;19.63;;;14.23;;
50585;SDS011;36542;51.700;8.846;2023-05-07T08:47:43;18.13;;;14.17;;
50585;SDS011;36542;51.700;8.846;2023-05-07T08:50:11;19.93;;;13.80;;
50585;SDS011;36542;51.700;8.846;2023-05-07T08:52:38;18.90;;;13.70;;
50585;SDS011;36542;51.700;8.846;2023-05-07T08:55:05;18.30;;;13.47;;
50585;SDS011;36542;51.700;8.846;2023-05-07T08:57:32;20.43;;;14.17;;
50585;SDS011;36542;51.700;8.846;2023-05-07T08:59:57;17.33;;;13.30;;
50585;SDS011;36542;51.700;8.846;2023-05-07T09:02:23;17.93;;;12.83;;
50585;SDS011;36542;51.700;8.846;2023-05-07T09:04:48;18.20;;;13.33;;
50585;SDS011;36542;51.700;8.846;2023-05-07T09:07:14;16.47;;;12.60;;
50585;SDS011;36542;51.700;8.846;2023-05-07T09:09:40;18.23;;;12.60;;
50585;SDS011;36542;51.700;8.846;2023-05-07T09:12:05;16.77;;;13.63;;
50585;SDS011;36542;51.700;8.846;2023-05-07T09:14:31;16.40;;;13.07;;
50585;SDS011;36542;51.700;8.846;2023-05-07T09:16:56;16.40;;;12.37;;
50585;SDS011;36542;51.700;8.846;2023-05-07T09:19:25;17.53;;;13.70;;
50585;SDS011;36542;51.700;8.846;2023-05-07T09:21:59;17.70;;;13.77;;
50585;SDS011;36542;51.700;8.846;2023-05-07T09:24:29;17.83;;;14.13;;
50585;SDS011;36542;51.700;8.846;2023-05-07T09:26:59;19.27;;;13.53;;
50585;SDS011;36542;51.700;8.846;2023-05-07T09:29:27;16.23;;;13.03;;
50585;SDS011;36542;51.700;8.846;2023-05-07T09:32:00;14.87;;;12.13;;
50585;SDS011;36542;51.700;8.846;2023-05-07T09:34:29;20.00;;;14.47;;
50585;SDS011;36542;51.700;8.846;2023-05-07T09:36:55;16.93;;;12.87;;
50585;SDS011;36542;51.700;8.846;2023-05-07T09:39:23;17.83;;;12.47;;
50585;SDS011;36542;51.700;8.846;2023-05-07T09:41:48;14.73;;;12.13;;
50585;SDS011;36542;51.700;8.846;2023-05-07T09:44:16;16.97;;;12.63;;
50585;SDS011;36542;51.700;8.846;2023-05-07T09:46:42;15.23;;;12.57;;
50585;SDS011;36542;51.700;8.846;2023-05-07T09:49:12;15.77;;;12.37;;
50585;SDS011;36542;51.700;8.846;2023-05-07T09:51:45;16.03;;;12.20;;
50585;SDS011;36542;51.700;8.846;2023-05-07T09:54:14;13.43;;;11.27;;
50585;SDS011;36542;51.700;8.846;2023-05-07T09:56:40;15.07;;;11.67;;
50585;SDS011;36542;51.700;8.846;2023-05-07T09:59:07;16.80;;;12.57;;
50585;SDS011;36542;51.700;8.846;2023-05-07T10:01:35;14.73;;;11.63;;
50585;SDS011;36542;51.700;8.846;2023-05-07T10:04:02;14.90;;;11.80;;
50585;SDS011;36542;51.700;8.846;2023-05-07T10:06:29;15.63;;;11.93;;
50585;SDS011;36542;51.700;8.846;2023-05-07T10:08:55;15.57;;;11.17;;
50585;SDS011;36542;51.700;8.846;2023-05-07T10:11:21;14.63;;;11.53;;
50585;SDS011;36542;51.700;8.846;2023-05-07T10:13:48;15.07;;;11.13;;
50585;SDS011;36542;51.700;8.846;2023-05-07T10:16:13;13.30;;;10.63;;
50585;SDS011;36542;51.700;8.846;2023-05-07T10:18:40;14.27;;;11.77;;
50585;SDS011;36542;51.700;8.846;2023-05-07T10:23:42;15.77;;;11.53;;
50585;SDS011;36542;51.700;8.846;2023-05-07T10:26:10;13.93;;;11.10;;
50585;SDS011;36542;51.700;8.846;2023-05-07T10:28:40;14.80;;;11.57;;
50585;SDS011;36542;51.700;8.846;2023-05-07T10:34:12;13.70;;;10.43;;
50585;SDS011;36542;51.700;8.846;2023-05-07T10:36:41;12.63;;;11.30;;
50585;SDS011;36542;51.700;8.846;2023-05-07T10:39:07;14.63;;;11.03;;
50585;SDS011;36542;51.700;8.846;2023-05-07T10:41:33;14.10;;;10.93;;
50585;SDS011;36542;51.700;8.846;2023-05-07T10:43:59;14.17;;;10.93;;
50585;SDS011;36542;51.700;8.846;2023-05-07T10:46:27;12.87;;;10.63;;
50585;SDS011;36542;51.700;8.846;2023-05-07T10:51:28;12.53;;;10.73;;
50585;SDS011;36542;51.700;8.846;2023-05-07T10:54:40;12.90;;;11.10;;
50585;SDS011;36542;51.700;8.846;2023-05-07T10:56:44;11.03;;;9.40;;
50585;SDS011;36542;51.700;8.846;2023-05-07T11:01:58;11.80;;;9.20;;
50585;SDS011;36542;51.700;8.846;2023-05-07T11:04:25;15.13;;;9.50;;
50585;SDS011;36542;51.700;8.846;2023-05-07T11:15:02;12.03;;;9.50;;
50585;SDS011;36542;51.700;8.846;2023-05-07T11:17:57;10.80;;;8.77;;
50585;SDS011;36542;51.700;8.846;2023-05-07T11:21:06;10.67;;;8.93;;
50585;SDS011;36542;51.700;8.846;2023-05-07T11:28:29;8.90;;;8.00;;
50585;SDS011;36542;51.700;8.846;2023-05-07T11:30:56;8.83;;;7.93;;
50585;SDS011;36542;51.700;8.846;2023-05-07T11:33:22;9.57;;;8.43;;
50585;SDS011;36542;51.700;8.846;2023-05-07T11:35:50;8.93;;;8.00;;
50585;SDS011;36542;51.700;8.846;2023-05-07T11:38:17;9.20;;;8.13;;
50585;SDS011;36542;51.700;8.846;2023-05-07T11:40:55;9.33;;;7.77;;
50585;SDS011;36542;51.700;8.846;2023-05-07T11:43:22;8.90;;;7.60;;
50585;SDS011;36542;51.700;8.846;2023-05-07T11:45:48;10.07;;;8.00;;
50585;SDS011;36542;51.700;8.846;2023-05-07T11:48:14;8.90;;;7.97;;
50585;SDS011;36542;51.700;8.846;2023-05-07T11:50:54;8.33;;;7.40;;
50585;SDS011;36542;51.700;8.846;2023-05-07T11:53:33;8.80;;;7.83;;
50585;SDS011;36542;51.700;8.846;2023-05-07T11:56:05;7.97;;;7.17;;
50585;SDS011;36542;51.700;8.846;2023-05-07T11:58:35;8.33;;;6.97;;
50585;SDS011;36542;51.700;8.846;2023-05-07T12:01:01;8.43;;;7.20;;
50585;SDS011;36542;51.700;8.846;2023-05-07T12:03:26;8.23;;;7.43;;
50585;SDS011;36542;51.700;8.846;2023-05-07T12:05:52;7.57;;;6.87;;
50585;SDS011;36542;51.700;8.846;2023-05-07T12:08:18;8.47;;;7.57;;
50585;SDS011;36542;51.700;8.846;2023-05-07T12:10:44;8.23;;;7.20;;
50585;SDS011;36542;51.700;8.846;2023-05-07T12:13:19;10.03;;;7.27;;
50585;SDS011;36542;51.700;8.846;2023-05-07T12:15:53;8.23;;;7.17;;
50585;SDS011;36542;51.700;8.846;2023-05-07T12:18:19;7.23;;;6.53;;
50585;SDS011;36542;51.700;8.846;2023-05-07T12:20:46;7.87;;;7.07;;
50585;SDS011;36542;51.700;8.846;2023-05-07T12:23:12;8.17;;;7.33;;
50585;SDS011;36542;51.700;8.846;2023-05-07T12:25:39;8.13;;;6.90;;
50585;SDS011;36542;51.700;8.846;2023-05-07T12:28:07;7.63;;;6.37;;
50585;SDS011;36542;51.700;8.846;2023-05-07T12:30:39;7.50;;;6.37;;
50585;SDS011;36542;51.700;8.846;2023-05-07T12:33:05;8.77;;;6.67;;
50585;SDS011;36542;51.700;8.846;2023-05-07T12:35:31;6.80;;;6.03;;
50585;SDS011;36542;51.700;8.846;2023-05-07T12:38:01;7.47;;;6.53;;
50585;SDS011;36542;51.700;8.846;2023-05-07T12:40:39;8.60;;;7.63;;
50585;SDS011;36542;51.700;8.846;2023-05-07T12:43:18;9.10;;;7.37;;
50585;SDS011;36542;51.700;8.846;2023-05-07T12:45:54;7.50;;;6.50;;
50585;SDS011;36542;51.700;8.846;2023-05-07T12:48:21;7.17;;;6.37;;
50585;SDS011;36542;51.700;8.846;2023-05-07T12:50:51;6.87;;;6.20;;
50585;SDS011;36542;51.700;8.846;2023-05-07T12:53:19;7.87;;;7.07;;
50585;SDS011;36542;51.700;8.846;2023-05-07T12:55:47;8.17;;;7.23;;
50585;SDS011;36542;51.700;8.846;2023-05-07T12:58:15;8.03;;;7.23;;
50585;SDS011;36542;51.700;8.846;2023-05-07T13:00:42;8.00;;;7.20;;
50585;SDS011;36542;51.700;8.846;2023-05-07T13:03:08;9.67;;;7.60;;
50585;SDS011;36542;51.700;8.846;2023-05-07T13:05:34;9.03;;;7.40;;
50585;SDS011;36542;51.700;8.846;2023-05-07T13:07:59;9.50;;;8.37;;
50585;SDS011;36542;51.700;8.846;2023-05-07T13:10:26;9.90;;;8.10;;
50585;SDS011;36542;51.700;8.846;2023-05-07T13:12:52;10.53;;;8.90;;
50585;SDS011;36542;51.700;8.846;2023-05-07T13:15:18;10.90;;;8.20;;
50585;SDS011;36542;51.700;8.846;2023-05-07T13:17:43;11.30;;;8.13;;
50585;SDS011;36542;51.700;8.846;2023-05-07T13:20:09;11.07;;;8.70;;
50585;SDS011;36542;51.700;8.846;2023-05-07T13:22:36;10.00;;;8.97;;
50585;SDS011;36542;51.700;8.846;2023-05-07T13:25:02;10.20;;;9.10;;
50585;SDS011;36542;51.700;8.846;2023-05-07T13:27:27;10.07;;;9.00;;
50585;SDS011;36542;51.700;8.846;2023-05-07T13:29:55;10.13;;;9.10;;
50585;SDS011;36542;51.700;8.846;2023-05-07T13:32:21;10.97;;;9.77;;
50585;SDS011;36542;51.700;8.846;2023-05-07T13:34:46;11.60;;;10.03;;
50585;SDS011;36542;51.700;8.846;2023-05-07T13:37:12;13.77;;;11.87;;
50585;SDS011;36542;51.700;8.846;2023-05-07T13:39:37;13.47;;;11.33;;
50585;SDS011;36542;51.700;8.846;2023-05-07T13:42:03;12.83;;;11.50;;
50585;SDS011;36542;51.700;8.846;2023-05-07T13:44:28;15.37;;;13.10;;
50585;SDS011;36542;51.700;8.846;2023-05-07T13:46:54;14.40;;;12.03;;
50585;SDS011;36542;51.700;8.846;2023-05-07T13:49:19;14.17;;;12.43;;
50585;SDS011;36542;51.700;8.846;2023-05-07T13:51:45;15.57;;;12.97;;
50585;SDS011;36542;51.700;8.846;2023-05-07T13:54:10;14.40;;;12.50;;
50585;SDS011;36542;51.700;8.846;2023-05-07T13:56:36;14.77;;;12.73;;
50585;SDS011;36542;51.700;8.846;2023-05-07T13:59:02;16.10;;;12.97;;
50585;SDS011;36542;51.700;8.846;2023-05-07T14:01:27;14.87;;;13.27;;
50585;SDS011;36542;51.700;8.846;2023-05-07T14:03:53;16.60;;;13.70;;
50585;SDS011;36542;51.700;8.846;2023-05-07T14:06:18;15.57;;;13.73;;
50585;SDS011;36542;51.700;8.846;2023-05-07T14:08:44;14.53;;;12.93;;
50585;SDS011;36542;51.700;8.846;2023-05-07T14:11:10;15.50;;;13.17;;
50585;SDS011;36542;51.700;8.846;2023-05-07T14:13:35;15.17;;;12.80;;
50585;SDS011;36542;51.700;8.846;2023-05-07T14:16:01;16.07;;;13.80;;
50585;SDS011;36542;51.700;8.846;2023-05-07T14:18:26;14.87;;;13.17;;
50585;SDS011;36542;51.700;8.846;2023-05-07T14:20:53;19.87;;;15.13;;
50585;SDS011;36542;51.700;8.846;2023-05-07T14:23:19;18.00;;;13.80;;
50585;SDS011;36542;51.700;8.846;2023-05-07T14:25:47;16.00;;;13.30;;
50585;SDS011;36542;51.700;8.846;2023-05-07T14:28:12;14.97;;;13.47;;
50585;SDS011;36542;51.700;8.846;2023-05-07T14:30:38;15.83;;;13.40;;
50585;SDS011;36542;51.700;8.846;2023-05-07T14:33:03;15.97;;;13.60;;
50585;SDS011;36542;51.700;8.846;2023-05-07T14:35:29;15.87;;;14.27;;
50585;SDS011;36542;51.700;8.846;2023-05-07T14:37:54;15.07;;;13.57;;
50585;SDS011;36542;51.700;8.846;2023-05-07T14:40:20;16.17;;;14.47;;
50585;SDS011;36542;51.700;8.846;2023-05-07T14:42:45;19.57;;;14.17;;
50585;SDS011;36542;51.700;8.846;2023-05-07T14:45:11;15.47;;;13.83;;
50585;SDS011;36542;51.700;8.846;2023-05-07T14:47:37;17.40;;;14.93;;